Decoded Metar for CYYN (SWIFT CURRENT in SK, CANADA) (IATA:YYN) | Meteo·Mobile Aviation Weather
aviador You're here:

CYYN Decoded Metar

SWIFT CURRENT in SK, CANADA
Report Time2018-11-19 04:35:00
UTC Time2018-11-19 04:45:14
Flight Rules mvfr MVFR
Wind120° at 03 kt
W.Decomp.*RWY 12: 2.9 kt HW 0.7 kt LCW
RWY 04: 1.2 kt HW 2.8 kt RCW
W.Rank120° ranks 20
Current wind is below 120° avg. (9.2)
Visibility9656 m
Phenomena:Mist
Clouds:Broken 016 Hf
Overcast 032 Hf
Expected CloudBase > 400 ft AGL from Temp-Dew spread
Ceiling1,600 ft
Temp-7°C (ISA -17)
Dew Point-8°C (93% RH)
AAT-11.0°C
QNH1016 hPa
Density Alt584 ft
Elevation2,684 ft
Report Wrong Elevation
Raw Report
SPECI CYYN 190435Z AUTO 12003KT 6SM BR BKN016 OVC032 M07/M08 A2999
RMK ICG PAST HR SLP200=

Extra information for CYYN:More info

Metar Taf Metar & Taf Last 4 Metars F.Rules Stats Wind Profile Meteogram Temp Stats Airport Information Weather charts Add Link Nearby VenuesMetar ALERT Operation Metar Decoded Social comments